createdAt,value
2019-03-15T00:01:40.522Z,100316.30
2019-03-15T00:04:09.657Z,100325.33
2019-03-15T00:06:38.776Z,100326.15
2019-03-15T00:09:10.804Z,100335.15
2019-03-15T00:11:39.942Z,100341.22
2019-03-15T00:14:09.073Z,100343.75
2019-03-15T00:16:38.206Z,100352.09
2019-03-15T00:19:07.333Z,100356.52
2019-03-15T00:21:36.453Z,100357.79
2019-03-15T00:24:05.558Z,100356.06
2019-03-15T00:26:34.747Z,100357.66
2019-03-15T00:29:03.865Z,100355.19
2019-03-15T00:31:32.982Z,100358.64
2019-03-15T00:34:02.145Z,100375.55
2019-03-15T00:36:31.223Z,100368.34
2019-03-15T00:39:00.333Z,100360.61
2019-03-15T00:41:29.464Z,100358.45
2019-03-15T00:43:58.575Z,100350.81
2019-03-15T00:46:27.681Z,100351.30
2019-03-15T00:48:56.808Z,100363.11
2019-03-15T00:51:25.922Z,100360.04
2019-03-15T00:53:55.157Z,100368.36
2019-03-15T00:56:24.248Z,100378.70
2019-03-15T00:58:53.365Z,100374.05
2019-03-15T01:01:22.480Z,100371.64
2019-03-15T01:03:51.635Z,100373.78
2019-03-15T01:06:20.747Z,100367.88
2019-03-15T01:08:49.864Z,100371.16
2019-03-15T01:11:18.998Z,100378.97
2019-03-15T01:13:48.107Z,100375.63
2019-03-15T01:16:17.223Z,100373.86
2019-03-15T01:18:46.357Z,100380.64
2019-03-15T01:21:15.487Z,100378.86
2019-03-15T01:23:44.588Z,100377.21
2019-03-15T01:26:13.718Z,100379.25
2019-03-15T01:28:42.623Z,100376.10
2019-03-15T01:31:11.697Z,100376.88
2019-03-15T01:33:40.837Z,100381.20
2019-03-15T01:36:10.279Z,100384.15
2019-03-15T01:38:39.384Z,100385.98
2019-03-15T01:41:08.507Z,100382.85
2019-03-15T01:43:38.476Z,100378.88
2019-03-15T01:46:08.425Z,100379.33
2019-03-15T01:48:37.615Z,100379.39
2019-03-15T01:51:06.506Z,100375.92
2019-03-15T01:53:35.580Z,100375.10
2019-03-15T01:56:04.707Z,100372.16
2019-03-15T01:58:33.823Z,100372.56
2019-03-15T02:01:02.935Z,100368.80
2019-03-15T02:03:32.063Z,100363.41
2019-03-15T02:06:01.185Z,100361.22
2019-03-15T02:08:30.301Z,100368.70
2019-03-15T02:10:59.437Z,100362.80
2019-03-15T02:13:28.583Z,100356.73
2019-03-15T02:15:57.655Z,100357.31
2019-03-15T02:18:26.782Z,100358.20
2019-03-15T02:20:55.895Z,100354.36
2019-03-15T02:23:25.010Z,100363.97
2019-03-15T02:25:54.146Z,100357.95
2019-03-15T02:28:23.256Z,100359.91
2019-03-15T02:30:52.375Z,100358.91
2019-03-15T02:33:21.529Z,100350.80
2019-03-15T02:35:50.912Z,100345.81
2019-03-15T02:38:20.027Z,100344.53
2019-03-15T02:40:49.226Z,100353.85
2019-03-15T02:43:19.119Z,100359.33
2019-03-15T02:45:48.501Z,100362.41
2019-03-15T02:48:17.930Z,100349.91
2019-03-15T02:50:47.325Z,100342.11
2019-03-15T02:53:16.446Z,100335.23
2019-03-15T02:55:45.574Z,100340.59
2019-03-15T02:58:14.467Z,100344.80
2019-03-15T03:00:43.543Z,100334.81
2019-03-15T03:03:12.679Z,100336.23
2019-03-15T03:05:41.574Z,100335.03
2019-03-15T03:08:14.122Z,100334.95
2019-03-15T03:10:43.536Z,100329.58
2019-03-15T03:13:12.652Z,100327.76
2019-03-15T03:15:41.762Z,100322.81
2019-03-15T03:18:10.890Z,100330.05
2019-03-15T03:20:40.031Z,100334.98
2019-03-15T03:23:09.124Z,100331.98
2019-03-15T03:25:38.511Z,100329.11
2019-03-15T03:28:07.627Z,100320.62
2019-03-15T03:30:36.783Z,100317.17
2019-03-15T03:33:05.947Z,100315.46
2019-03-15T03:35:35.072Z,100312.34
2019-03-15T03:38:04.188Z,100307.46
2019-03-15T03:40:33.318Z,100315.28
2019-03-15T03:43:02.430Z,100310.33
2019-03-15T03:45:31.591Z,100315.89
2019-03-15T03:48:01.044Z,100315.16
2019-03-15T03:50:30.166Z,100313.67
2019-03-15T03:52:59.286Z,100310.27
2019-03-15T03:55:28.397Z,100305.22
2019-03-15T03:57:57.851Z,100305.63
2019-03-15T04:00:26.469Z,100307.00
2019-03-15T04:02:55.557Z,100304.08
2019-03-15T04:05:24.685Z,100306.61
2019-03-15T04:07:53.831Z,100287.29
2019-03-15T04:10:23.034Z,100279.25
2019-03-15T04:12:52.141Z,100277.02
2019-03-15T04:15:21.304Z,100266.47
2019-03-15T04:17:50.434Z,100256.33
2019-03-15T04:20:19.561Z,100261.02
2019-03-15T04:22:48.668Z,100262.38
2019-03-15T04:25:17.794Z,100258.98
2019-03-15T04:27:46.924Z,100249.91
2019-03-15T04:30:16.039Z,100250.91
2019-03-15T04:32:45.168Z,100243.95
2019-03-15T04:35:14.274Z,100244.66
2019-03-15T04:37:43.421Z,100250.46
2019-03-15T04:40:12.920Z,100250.42
2019-03-15T04:42:41.383Z,100248.10
2019-03-15T04:45:10.469Z,100240.81
2019-03-15T04:47:39.621Z,100243.02
2019-03-15T04:50:09.282Z,100240.25
2019-03-15T04:52:38.418Z,100246.81
2019-03-15T04:55:07.602Z,100240.45
2019-03-15T04:57:36.761Z,100231.41
2019-03-15T05:00:12.787Z,100233.58
2019-03-15T05:02:42.263Z,100230.64
2019-03-15T05:05:10.715Z,100220.32
2019-03-15T05:07:39.796Z,100221.36
2019-03-15T05:10:10.048Z,100221.66
2019-03-15T05:12:39.178Z,100218.45
2019-03-15T05:15:10.147Z,100216.58
2019-03-15T05:17:39.262Z,100214.78
2019-03-15T05:20:09.804Z,100212.55
2019-03-15T05:22:38.980Z,100219.86
2019-03-15T05:25:08.498Z,100227.00
2019-03-15T05:27:36.923Z,100218.44
2019-03-15T05:30:10.088Z,100218.49
2019-03-15T05:32:39.218Z,100207.59
2019-03-15T05:40:45.451Z,100191.51
2019-03-15T05:43:15.665Z,100185.83
2019-03-15T05:46:32.124Z,100182.05
2019-03-15T05:48:36.767Z,100176.98
2019-03-15T05:51:32.289Z,100173.50
2019-03-15T05:54:47.605Z,100177.77
2019-03-15T05:57:35.231Z,100176.84
2019-03-15T06:00:19.059Z,100176.22
2019-03-15T06:02:50.767Z,100167.70
2019-03-15T06:05:27.782Z,100160.41
2019-03-15T06:11:35.324Z,100151.06
2019-03-15T06:14:25.306Z,100153.25
2019-03-15T06:17:25.720Z,100154.09
2019-03-15T06:19:54.535Z,100150.58
2019-03-15T06:22:45.760Z,100149.77
2019-03-15T06:26:55.946Z,100143.62
2019-03-15T06:28:17.295Z,100145.10
2019-03-15T06:30:47.928Z,100142.45
2019-03-15T06:33:29.013Z,100133.22
2019-03-15T06:36:07.211Z,100130.95
2019-03-15T06:38:43.909Z,100129.83
2019-03-15T06:44:15.260Z,100123.89
2019-03-15T06:47:12.273Z,100120.11
2019-03-15T06:49:40.958Z,100107.39
2019-03-15T06:52:12.263Z,100107.89
2019-03-15T06:57:36.987Z,100104.75
2019-03-15T07:05:20.831Z,100102.41
2019-03-15T07:08:37.627Z,100082.42
2019-03-15T07:11:08.273Z,100069.95
2019-03-15T07:13:40.283Z,100058.56
2019-03-15T07:19:30.331Z,100037.84
2019-03-15T07:22:12.522Z,100033.72
2019-03-15T07:24:56.667Z,100030.13
2019-03-15T07:32:07.416Z,100034.70
2019-03-15T07:33:05.580Z,100034.66
2019-03-15T07:35:43.581Z,100036.03
2019-03-15T07:38:23.186Z,100032.87
2019-03-15T07:40:57.580Z,100038.55
2019-03-15T07:43:41.551Z,100022.38
2019-03-15T07:46:12.509Z,100011.42
2019-03-15T07:49:01.692Z,100013.56
2019-03-15T07:51:33.882Z,100013.35
2019-03-15T07:54:17.434Z,100020.02
2019-03-15T07:56:46.600Z,100013.11
2019-03-15T07:59:19.598Z,100005.89
2019-03-15T08:02:13.208Z,100006.86
2019-03-15T08:04:50.459Z,100001.92
2019-03-15T08:07:37.746Z,99993.63
2019-03-15T08:10:12.912Z,99987.84
2019-03-15T08:12:50.158Z,99983.32
2019-03-15T08:15:46.892Z,99980.80
2019-03-15T08:18:21.881Z,99974.59
2019-03-15T08:21:10.571Z,99971.17
2019-03-15T08:23:42.315Z,99962.61
2019-03-15T08:26:49.864Z,99961.63
2019-03-15T08:30:53.385Z,99964.38
2019-03-15T08:33:09.161Z,99947.08
2019-03-15T08:35:26.129Z,99947.27
2019-03-15T08:41:02.008Z,99966.76
2019-03-15T08:43:31.224Z,99959.34
2019-03-15T08:46:18.836Z,99950.17
2019-03-15T08:48:48.003Z,99946.38
2019-03-15T08:51:17.844Z,99941.17
2019-03-15T08:54:36.217Z,99934.68
2019-03-15T08:57:10.721Z,99924.50
2019-03-15T08:59:52.392Z,99924.05
2019-03-15T09:02:10.875Z,99922.95
2019-03-15T09:05:14.402Z,99935.17
2019-03-15T09:07:45.292Z,99914.30
2019-03-15T09:10:29.264Z,99918.34
2019-03-15T09:12:56.057Z,99927.02
2019-03-15T09:15:27.276Z,99930.08
2019-03-15T09:18:07.037Z,99924.65
2019-03-15T09:20:45.869Z,99916.97
2019-03-15T09:23:36.007Z,99909.27
2019-03-15T09:26:30.009Z,99914.25
2019-03-15T09:28:58.896Z,99915.17
2019-03-15T09:31:27.763Z,99918.53
2019-03-15T09:37:06.932Z,99899.76
2019-03-15T09:39:36.086Z,99897.23
2019-03-15T09:42:26.233Z,99894.09
2019-03-15T09:45:20.051Z,99889.03
2019-03-15T09:48:37.059Z,99899.23
2019-03-15T09:54:01.918Z,99880.16
2019-03-15T09:56:31.107Z,99879.33
2019-03-15T09:59:00.250Z,99877.29
2019-03-15T10:02:11.240Z,99873.32
2019-03-15T10:05:10.753Z,99871.59
2019-03-15T10:07:39.153Z,99877.79
2019-03-15T10:10:13.487Z,99888.23
2019-03-15T10:12:35.825Z,99882.13
2019-03-15T10:15:08.045Z,99893.67
2019-03-15T10:17:47.668Z,99886.22
2019-03-15T10:20:16.891Z,99889.63
2019-03-15T10:23:15.527Z,99885.05
2019-03-15T10:29:15.600Z,99881.73
2019-03-15T10:32:26.595Z,99889.35
2019-03-15T10:38:03.875Z,99889.23
2019-03-15T10:40:33.110Z,99885.83
2019-03-15T10:46:36.253Z,99901.27
2019-03-15T10:52:26.482Z,99923.58
2019-03-15T10:55:31.017Z,99918.38
2019-03-15T10:57:59.984Z,99917.44
2019-03-15T11:00:29.383Z,99939.44
2019-03-15T11:02:58.361Z,99926.90
2019-03-15T11:05:46.795Z,99927.53
2019-03-15T11:09:04.013Z,99931.92
2019-03-15T11:11:43.701Z,99933.25
2019-03-15T11:17:14.716Z,99924.65
2019-03-15T11:19:43.861Z,99923.48
2019-03-15T11:22:12.808Z,99941.13
2019-03-15T11:24:43.991Z,99939.36
2019-03-15T11:27:12.769Z,99938.20
2019-03-15T11:29:43.974Z,99939.03
2019-03-15T11:35:22.118Z,99949.73
2019-03-15T11:38:03.278Z,99941.37
2019-03-15T11:43:41.952Z,99934.46
2019-03-15T11:47:56.371Z,99942.22
2019-03-15T11:49:35.633Z,99974.66
2019-03-15T11:52:30.284Z,99965.70
2019-03-15T11:55:35.391Z,99970.92
2019-03-15T11:58:30.924Z,99978.28
2019-03-15T12:01:16.044Z,99988.45
2019-03-15T12:03:59.175Z,99982.38
2019-03-15T12:06:25.236Z,99991.92
2019-03-15T12:08:54.449Z,99986.41
2019-03-15T12:12:00.173Z,99979.72
2019-03-15T12:14:43.236Z,99989.96
2019-03-15T12:17:35.521Z,99990.53
2019-03-15T12:20:13.489Z,99985.75
2019-03-15T12:26:10.044Z,99983.49
2019-03-15T12:28:56.146Z,99993.79
2019-03-15T12:31:22.514Z,99983.62
2019-03-15T12:33:51.616Z,99979.84
2019-03-15T12:36:20.749Z,99985.07
2019-03-15T12:39:42.953Z,99984.82
2019-03-15T12:42:18.840Z,99987.20
2019-03-15T12:45:47.382Z,99993.84
2019-03-15T12:47:52.561Z,99984.25
2019-03-15T12:50:26.499Z,99982.47
2019-03-15T12:52:55.067Z,99970.93
2019-03-15T12:55:24.255Z,99978.61
2019-03-15T13:01:13.312Z,99984.02
2019-03-15T13:06:57.226Z,99993.23
2019-03-15T13:09:26.342Z,99987.03
2019-03-15T13:11:55.464Z,99984.83
2019-03-15T13:14:24.673Z,99996.23
2019-03-15T13:17:20.049Z,100002.71
2019-03-15T13:19:54.974Z,100011.00
2019-03-15T13:22:21.626Z,100007.27
2019-03-15T13:25:32.122Z,100037.11
2019-03-15T13:28:03.843Z,100024.95
2019-03-15T13:30:49.652Z,100029.03
2019-03-15T13:33:20.428Z,100029.93
2019-03-15T13:35:43.964Z,100036.81
2019-03-15T13:38:13.179Z,100031.86
2019-03-15T13:40:42.591Z,100031.13
2019-03-15T13:43:21.993Z,100040.27
2019-03-15T13:48:54.682Z,100036.36
2019-03-15T13:51:40.235Z,100042.58
2019-03-15T13:57:20.723Z,100048.00
2019-03-15T13:59:39.571Z,100045.98
2019-03-15T14:02:08.736Z,100055.73
2019-03-15T14:04:37.967Z,100060.87
2019-03-15T14:07:16.091Z,100058.33
2019-03-15T14:09:45.049Z,100066.42
2019-03-15T14:12:14.073Z,100067.36
2019-03-15T14:17:39.932Z,100072.24
2019-03-15T14:20:16.049Z,100073.61
2019-03-15T14:22:45.203Z,100081.20
2019-03-15T14:25:28.357Z,100067.58
2019-03-15T14:27:57.595Z,100087.26
2019-03-15T14:30:26.843Z,100085.57
2019-03-15T14:32:57.769Z,100071.09
2019-03-15T14:35:26.931Z,100079.41
2019-03-15T14:37:55.919Z,100085.25
2019-03-15T14:40:27.996Z,100087.27
2019-03-15T14:43:00.166Z,100087.28
2019-03-15T14:45:37.473Z,100094.33
2019-03-15T14:48:46.730Z,100096.76
2019-03-15T14:54:17.542Z,100101.91
2019-03-15T14:57:06.185Z,100104.74
2019-03-15T14:59:35.491Z,100117.22
2019-03-15T15:02:04.640Z,100113.84
2019-03-15T15:04:33.884Z,100121.50
2019-03-15T15:07:03.110Z,100125.44
2019-03-15T15:09:32.218Z,100116.10
2019-03-15T15:12:01.181Z,100137.75
2019-03-15T15:14:30.362Z,100129.66
2019-03-15T15:17:06.681Z,100131.91
2019-03-15T15:19:53.065Z,100142.77
2019-03-15T15:25:18.601Z,100154.50
2019-03-15T15:27:47.209Z,100144.12
2019-03-15T15:30:49.613Z,100149.59
2019-03-15T15:33:06.191Z,100143.48
2019-03-15T15:35:35.380Z,100147.82
2019-03-15T15:38:04.565Z,100147.13
2019-03-15T15:40:33.866Z,100143.38
2019-03-15T15:43:03.009Z,100153.02
2019-03-15T15:45:32.141Z,100161.96
2019-03-15T15:48:01.285Z,100158.13
2019-03-15T15:51:04.818Z,100159.28
2019-03-15T15:53:48.795Z,100153.34
2019-03-15T16:02:38.042Z,100153.84
2019-03-15T16:05:28.003Z,100158.28
2019-03-15T16:10:44.404Z,100179.31
2019-03-15T16:13:40.841Z,100170.97
2019-03-15T16:19:27.080Z,100170.80
2019-03-15T16:22:23.377Z,100181.55
2019-03-15T16:25:37.364Z,100185.12
2019-03-15T16:27:53.975Z,100191.42
2019-03-15T16:30:23.183Z,100199.87
2019-03-15T16:35:39.080Z,100208.05
2019-03-15T16:38:08.197Z,100203.22
2019-03-15T16:40:37.492Z,100203.11
2019-03-15T16:43:08.356Z,100204.70
2019-03-15T16:45:39.150Z,100211.44
2019-03-15T16:48:08.287Z,100225.20
2019-03-15T16:50:37.416Z,100230.31
2019-03-15T16:54:12.094Z,100237.81
2019-03-15T16:56:40.539Z,100230.97
2019-03-15T16:59:09.701Z,100222.23
2019-03-15T17:01:38.936Z,100250.11
2019-03-15T17:04:08.134Z,100241.66
2019-03-15T17:06:37.249Z,100254.02
2019-03-15T17:09:06.979Z,100259.25
2019-03-15T17:11:36.155Z,100267.72
2019-03-15T17:14:30.018Z,100268.98
2019-03-15T17:17:02.297Z,100275.16
2019-03-15T17:19:31.440Z,100272.16
2019-03-15T17:22:00.582Z,100284.08
2019-03-15T17:24:29.825Z,100287.95
2019-03-15T17:26:58.965Z,100291.09
2019-03-15T17:29:28.053Z,100297.68
2019-03-15T17:31:57.219Z,100301.47
2019-03-15T17:34:26.350Z,100304.11
2019-03-15T17:37:06.059Z,100307.73
2019-03-15T17:42:29.644Z,100313.14
2019-03-15T17:44:58.281Z,100324.84
2019-03-15T17:51:31.079Z,100344.84
2019-03-15T17:54:03.329Z,100348.44
2019-03-15T17:59:35.264Z,100361.72
2019-03-15T18:02:04.379Z,100365.92
2019-03-15T18:04:33.497Z,100374.69
2019-03-15T18:07:06.085Z,100373.34
2019-03-15T18:09:35.166Z,100367.27
2019-03-15T18:12:04.284Z,100367.19
2019-03-15T18:14:33.259Z,100370.08
2019-03-15T18:17:02.332Z,100379.27
2019-03-15T18:19:31.444Z,100377.88
2019-03-15T18:22:00.574Z,100382.99
2019-03-15T18:24:29.699Z,100397.23
2019-03-15T18:26:58.810Z,100408.38
2019-03-15T18:29:27.953Z,100413.21
2019-03-15T18:31:57.076Z,100418.08
2019-03-15T18:34:28.150Z,100420.08
2019-03-15T18:36:57.282Z,100419.23
2019-03-15T18:39:26.408Z,100416.64
2019-03-15T18:41:55.517Z,100427.80
2019-03-15T18:44:24.653Z,100437.80
2019-03-15T18:46:53.767Z,100432.16
2019-03-15T18:49:22.895Z,100433.41
2019-03-15T18:51:52.020Z,100437.12
2019-03-15T18:54:21.138Z,100430.83
2019-03-15T18:56:50.280Z,100434.80
2019-03-15T18:59:19.407Z,100447.44
2019-03-15T19:01:48.299Z,100440.98
2019-03-15T19:04:17.158Z,100444.20
2019-03-15T19:06:46.043Z,100445.66
2019-03-15T19:09:14.898Z,100447.84
2019-03-15T19:11:43.080Z,100453.86
2019-03-15T19:14:12.163Z,100466.49
2019-03-15T19:16:41.059Z,100470.16
2019-03-15T19:19:10.133Z,100473.66
2019-03-15T19:21:39.303Z,100482.62
2019-03-15T19:24:08.376Z,100485.06
2019-03-15T19:26:37.491Z,100495.35
2019-03-15T19:29:06.870Z,100497.53
2019-03-15T19:31:35.756Z,100492.61
2019-03-15T19:34:04.842Z,100494.98
2019-03-15T19:36:33.968Z,100491.22
2019-03-15T19:39:04.259Z,100503.02
2019-03-15T19:41:33.378Z,100503.69
2019-03-15T19:44:02.521Z,100492.27
2019-03-15T19:46:31.620Z,100499.38
2019-03-15T19:49:00.730Z,100497.20
2019-03-15T19:51:29.869Z,100504.95
2019-03-15T19:53:58.997Z,100508.13
2019-03-15T19:56:28.082Z,100505.77
2019-03-15T19:58:56.571Z,100506.38
2019-03-15T20:01:28.861Z,100513.11
2019-03-15T20:03:56.484Z,100514.44
2019-03-15T20:06:25.612Z,100522.66
2019-03-15T20:08:54.730Z,100526.42
2019-03-15T20:11:23.889Z,100526.98
2019-03-15T20:13:52.355Z,100521.45
2019-03-15T20:16:21.433Z,100525.25
2019-03-15T20:18:50.547Z,100519.31
2019-03-15T20:21:19.676Z,100529.47
2019-03-15T20:23:49.019Z,100525.52
2019-03-15T20:26:18.143Z,100524.70
2019-03-15T20:28:47.300Z,100530.94
2019-03-15T20:31:17.555Z,100537.90
2019-03-15T20:33:46.670Z,100537.73
2019-03-15T20:36:15.812Z,100536.33
2019-03-15T20:38:44.937Z,100523.48
2019-03-15T20:41:19.499Z,100540.58
2019-03-15T20:43:47.048Z,100543.88
2019-03-15T20:46:16.215Z,100545.55
2019-03-15T20:48:45.281Z,100556.88
2019-03-15T20:51:14.414Z,100557.36
2019-03-15T20:53:43.524Z,100555.74
2019-03-15T20:56:12.632Z,100552.70
2019-03-15T20:58:41.767Z,100555.30
2019-03-15T21:01:10.887Z,100553.31
2019-03-15T21:03:39.787Z,100551.09
2019-03-15T21:06:08.910Z,100561.66
2019-03-15T21:08:38.045Z,100560.21
2019-03-15T21:11:07.163Z,100571.47
2019-03-15T21:13:36.300Z,100572.79
2019-03-15T21:16:05.087Z,100576.21
2019-03-15T21:18:34.174Z,100588.34
2019-03-15T21:21:03.289Z,100586.99
2019-03-15T21:23:32.654Z,100598.22
2019-03-15T21:26:01.771Z,100597.90
2019-03-15T21:28:30.682Z,100608.45
2019-03-15T21:30:59.538Z,100599.16
2019-03-15T21:33:28.399Z,100603.68
2019-03-15T21:35:57.821Z,100598.23
2019-03-15T21:38:26.047Z,100608.36
2019-03-15T21:40:55.118Z,100607.50
2019-03-15T21:43:24.024Z,100605.95
2019-03-15T21:45:53.093Z,100610.37
2019-03-15T21:48:22.206Z,100620.95
2019-03-15T21:50:53.365Z,100620.66
2019-03-15T21:53:22.483Z,100619.77
2019-03-15T21:55:51.609Z,100628.02
2019-03-15T21:58:20.719Z,100637.67
2019-03-15T22:01:01.673Z,100627.94
2019-03-15T22:03:20.664Z,100633.59
2019-03-15T22:05:49.784Z,100641.80
2019-03-15T22:08:18.897Z,100640.96
2019-03-15T22:10:48.017Z,100636.59
2019-03-15T22:13:17.132Z,100648.30
2019-03-15T22:15:46.241Z,100648.95
2019-03-15T22:18:15.350Z,100650.34
2019-03-15T22:20:44.474Z,100656.78
2019-03-15T22:23:13.592Z,100651.95
2019-03-15T22:25:42.704Z,100661.50
2019-03-15T22:28:11.913Z,100664.91
2019-03-15T22:30:41.026Z,100672.24
2019-03-15T22:33:10.146Z,100676.43
2019-03-15T22:35:39.291Z,100680.46
2019-03-15T22:38:08.389Z,100690.58
2019-03-15T22:40:37.586Z,100701.18
2019-03-15T22:43:06.790Z,100700.55
2019-03-15T22:45:35.697Z,100695.74
2019-03-15T22:48:04.765Z,100694.75
2019-03-15T22:50:33.888Z,100694.61
2019-03-15T22:53:02.996Z,100701.87
2019-03-15T22:55:32.118Z,100705.53
2019-03-15T22:58:01.238Z,100699.57
2019-03-15T23:00:37.503Z,100703.53
2019-03-15T23:03:06.401Z,100714.79
2019-03-15T23:05:35.458Z,100706.25
2019-03-15T23:08:04.571Z,100710.02
2019-03-15T23:10:33.702Z,100707.29
2019-03-15T23:13:02.821Z,100705.16
2019-03-15T23:15:31.942Z,100709.23
2019-03-15T23:18:01.053Z,100711.06
2019-03-15T23:20:30.174Z,100717.42
2019-03-15T23:22:59.277Z,100713.73
2019-03-15T23:25:28.418Z,100717.44
2019-03-15T23:27:57.526Z,100720.56
2019-03-15T23:30:26.637Z,100724.10
2019-03-15T23:32:56.009Z,100726.39
2019-03-15T23:35:25.123Z,100731.78
2019-03-15T23:37:54.243Z,100726.36
2019-03-15T23:40:23.154Z,100729.11
2019-03-15T23:42:52.227Z,100725.66
2019-03-15T23:45:21.337Z,100726.95
2019-03-15T23:47:50.479Z,100737.41
2019-03-15T23:50:19.590Z,100743.28
2019-03-15T23:52:48.708Z,100739.73
2019-03-15T23:55:17.921Z,100745.80
2019-03-15T23:57:46.812Z,100746.25
